Latest Coastal Weather Observations for Horn Island

IDQ60701

Issued at 6:11 pm EST Wednesday 27 May 2015 (issued every 10 minutes, with the page automatically refreshed every 10 minutes)

About coastal observations | Map of coastal stations | Coastal observations for QLD | Marine services | Other Formats
Station Details ID: 027058 Name: HORN ISLAND Lat: -10.58 Lon: 142.29 Height: 4.0 m
Data from the previous 72 hours. | See also: Recent months at Horn Island
Date/Time
EST
Temp

°C
Wind Pressure Rain
since 9am
mm
Weather Cloud Vis
km
Sea
Height
m
Swell
Dir
 
Speed
knots
Gust
knots
hPa Trend Height
m
Period
s
Dir
27/06:00pm 27.1 SE 15 21 1011.2 - 0.0 - Cloudy 10 - - - -
27/05:30pm 27.1 SE 16 24 1010.9 - 0.0 - Partly cloudy 10 - - - -
27/05:00pm 27.5 SE 17 23 1010.6 - 0.0 - Partly cloudy 10 - - - -
27/04:30pm 27.9 SE 15 20 1010.5 - 0.0 - Partly cloudy 10 - - - -
27/04:00pm 28.5 SE 18 25 1010.4 - 0.0 - Partly cloudy 10 - - - -
27/03:30pm 29.3 ESE 18 24 1010.2 - 0.0 - Partly cloudy 10 - - - -
27/03:00pm 28.7 ESE 17 25 1010.2 - 0.0 - Partly cloudy 10 - - - -
27/02:30pm 28.8 ESE 19 26 1010.5 - 0.0 - Partly cloudy 10 - - - -
27/02:00pm 29.5 ESE 19 25 1011.0 - 0.0 - Partly cloudy 10 - - - -
27/01:30pm 29.6 ESE 18 24 1011.5 - 0.0 - Partly cloudy 10 - - - -
27/01:00pm 29.5 ESE 17 22 1012.0 - 0.0 - Partly cloudy 10 - - - -
27/12:30pm 29.4 ESE 18 25 1012.5 - 0.0 - Partly cloudy 10 - - - -
27/12:00pm 28.6 ESE 16 23 1013.1 - 0.0 - Mostly cloudy 10 - - - -
27/11:30am 28.9 SE 17 23 1013.5 - 0.0 - Partly cloudy 10 - - - -
27/11:00am 28.7 SE 17 24 1014.0 - 0.0 - Partly cloudy 10 - - - -
27/10:30am 28.2 SE 13 20 1014.1 - 0.0 - Partly cloudy 10 - - - -
27/10:00am 27.1 SE 12 18 1014.4 - 0.0 - Partly cloudy 10 - - - -
27/09:30am 26.7 SE 11 15 1014.5 - 0.0 - Partly cloudy 10 - - - -
27/09:00am 26.6 SE 13 19 1014.4 - 0.0 - Cloudy 10 - - - -
27/08:30am 26.7 SE 13 21 1014.0 - 0.0 - Partly cloudy 10 - - - -
27/08:00am 26.4 SE 16 23 1013.8 - 0.0 - Partly cloudy 10 - - - -
27/07:30am 26.4 SE 17 23 1013.4 - 0.0 - Cloudy 10 - - - -
27/07:00am 26.4 SE 17 26 1013.1 - 0.0 - Cloudy 10 - - - -
27/06:30am 26.3 SE 17 25 1012.8 - 0.0 - Partly cloudy 10 - - - -
27/06:00am 26.3 SE 18 25 1012.5 - 0.0 - Cloudy 10 - - - -
27/05:35am 26.3 ESE 15 25 1012.3 - 0.0 - Partly cloudy 10 - - - -
27/05:30am 26.3 ESE 14 21 1012.3 - 0.0 - Partly cloudy 10 - - - -
27/05:00am 26.2 ESE 15 22 1012.1 - 0.0 - Partly cloudy 10 - - - -
27/04:30am 26.2 SE 14 20 1011.9 - 0.0 - Partly cloudy 10 - - - -
27/04:00am 26.3 SE 16 24 1011.8 - 0.0 - Partly cloudy 10 - - - -
27/03:48am 26.2 SE 17 27 1011.7 - 0.0 - Partly cloudy 10 - - - -
27/03:30am 26.3 SE 17 23 1011.9 - 0.0 - Partly cloudy 10 - - - -
27/03:00am 26.2 SE 18 24 1012.1 - 0.0 - Cloudy 10 - - - -
27/02:30am 26.1 SE 13 21 1012.1 - 0.0 - Partly cloudy 10 - - - -
27/02:00am 26.1 SE 14 21 1012.4 - 0.0 - Partly cloudy 10 - - - -
27/01:30am 26.0 SE 16 25 1012.6 - 0.0 - Partly cloudy 10 - - - -
27/01:00am 25.8 SE 14 21 1013.0 - 0.0 - Partly cloudy 10 - - - -
27/12:30am 26.2 SE 17 23 1013.3 - 0.0 - Partly cloudy 10 - - - -
27/12:00am 25.7 SE 16 23 1013.6 - 0.0 - Cloudy 10 - - - -
 
Date/Time
EST
Temp

°C
Wind Pressure Rain
since 9am
mm
Weather Cloud Vis
km
Sea
Height
m
Swell
Dir
 
Speed
knots
Gust
knots
hPa Trend Height
m
Period
s
Dir
26/11:30pm 26.2 ESE 18 29 1013.8 - 0.0 - Partly cloudy 10 - - - -
26/11:26pm 26.2 ESE 18 29 1013.8 - 0.0 - Partly cloudy 10 - - - -
26/11:00pm 25.8 ESE 18 26 1013.9 - 0.0 - Partly cloudy 6 - - - -
26/10:52pm 26.0 ESE 15 26 1013.9 - 0.0 - Partly cloudy 7 - - - -
26/10:30pm 26.4 SE 15 22 1014.0 - 0.0 - Cloudy 10 - - - -
26/10:00pm 26.1 SE 17 24 1014.0 - 0.0 - Partly cloudy 10 - - - -
26/09:38pm 26.0 SE 15 21 1014.0 - 0.0 - Partly cloudy 10 - - - -
26/09:30pm 26.0 SE 17 25 1014.0 - 0.0 - Partly cloudy 10 - - - -
26/09:10pm 25.9 SE 17 26 1014.1 - 0.0 - Partly cloudy 10 - - - -
26/09:00pm 26.1 SE 15 25 1014.1 - 0.0 - Cloudy 10 - - - -
26/08:30pm 26.1 SE 16 26 1013.8 - 0.0 - Partly cloudy 10 - - - -
26/08:26pm 26.0 SE 16 26 1013.7 - 0.0 - Partly cloudy 10 - - - -
26/08:01pm 25.7 SE 14 23 1013.3 - 0.0 - Partly cloudy 10 - - - -
26/08:00pm 25.7 SE 14 23 1013.3 - 0.0 - Partly cloudy 10 - - - -
26/07:49pm 25.7 ESE 16 26 1013.3 - 0.0 - Partly cloudy 5 - - - -
26/07:46pm 25.8 ESE 17 26 1013.2 - 0.0 - Partly cloudy 5 - - - -
26/07:30pm 26.6 SE 14 20 1012.9 - 0.0 - Partly cloudy 10 - - - -
26/07:00pm 26.8 SE 15 23 1012.6 - 0.0 - Partly cloudy 10 - - - -
26/06:33pm 26.8 ESE 15 25 1012.3 - 0.0 - Partly cloudy 10 - - - -
26/06:30pm 27.0 ESE 14 21 1012.3 - 0.0 - Partly cloudy 10 - - - -
26/06:00pm 27.1 ESE 14 21 1012.1 - 0.0 - Cloudy 10 - - - -
26/05:30pm 27.3 ESE 17 24 1012.1 - 0.0 - Partly cloudy 10 - - - -
26/05:00pm 28.0 ESE 16 24 1012.0 - 0.0 - Partly cloudy 10 - - - -
26/04:46pm 28.4 ESE 15 25 1012.0 - 0.0 - Partly cloudy 10 - - - -
26/04:30pm 28.7 ESE 16 22 1012.0 - 0.0 - Partly cloudy 10 - - - -
26/04:10pm 28.6 ESE 17 27 1011.9 - 0.0 - Partly cloudy 10 - - - -
26/04:00pm 29.0 ESE 18 25 1012.0 - 0.0 - Partly cloudy 10 - - - -
26/03:30pm 29.1 ESE 19 27 1012.0 - 0.0 - Partly cloudy 10 - - - -
26/03:00pm 29.1 ESE 20 27 1012.0 - 0.0 - Partly cloudy 10 - - - -
26/02:30pm 29.8 ESE 19 25 1012.2 - 0.0 - Partly cloudy 10 - - - -
26/02:00pm 29.9 ESE 20 27 1012.5 - 0.0 - Partly cloudy 10 - - - -
26/01:45pm 29.9 ESE 20 30 1012.6 - 0.0 - Partly cloudy 10 - - - -
26/01:30pm 29.6 ESE 19 28 1012.7 - 0.0 - Partly cloudy 10 - - - -
26/01:17pm 29.1 ESE 19 29 1012.9 - 0.0 - Partly cloudy 10 - - - -
26/01:00pm 29.2 SE 20 27 1013.3 - 0.0 - Partly cloudy 10 - - - -
26/12:30pm 29.9 ESE 20 29 1013.6 - 0.0 - Partly cloudy 10 - - - -
26/12:22pm 29.0 SE 17 29 1013.7 - 0.0 - Partly cloudy 10 - - - -
26/12:00pm 29.9 ESE 20 28 1014.0 - 0.0 - - 9 - - - -
26/11:30am 29.3 ESE 20 31 1014.2 - 0.0 - - 10 - - - -
26/11:29am 29.4 ESE 19 29 1014.3 - 0.0 - - 10 - - - -
26/11:00am 28.9 ESE 20 27 1014.8 - 0.0 - Partly cloudy 10 - - - -
26/10:30am 28.6 SE 17 25 1015.1 - 0.0 - Partly cloudy 10 - - - -
26/10:00am 28.5 ESE 17 26 1015.4 - 0.0 - Partly cloudy 9 - - - -
26/09:49am 28.9 SE 17 27 1015.4 - 0.0 - Partly cloudy 10 - - - -
26/09:30am 28.6 ESE 18 23 1015.6 - 0.0 - Partly cloudy 10 - - - -
26/09:03am 28.0 SE 16 26 1015.4 - 0.0 - Partly cloudy 10 - - - -
26/09:00am 27.6 SE 15 22 1015.5 - 1.0 - Cloudy 10 - - - -
26/08:30am 27.1 SE 15 21 1015.1 - 1.0 - Partly cloudy 10 - - - -
26/08:00am 26.6 SE 16 22 1014.9 - 1.0 - Partly cloudy 10 - - - -
26/07:30am 26.6 SE 16 22 1014.5 - 1.0 - Partly cloudy 10 - - - -
26/07:00am 26.3 SE 17 25 1014.0 - 1.0 - Partly cloudy 10 - - - -
26/06:30am 26.2 SE 15 25 1013.9 - 1.0 - Partly cloudy 10 - - - -
26/06:21am 26.2 SE 15 25 1013.9 - 1.0 - Partly cloudy 10 - - - -
26/06:00am 26.2 SE 15 23 1013.7 - 1.0 - Mostly clear 10 - - - -
26/05:30am 26.2 SE 17 25 1013.6 - 1.0 - Partly cloudy 10 - - - -
26/05:00am 26.2 SE 15 20 1013.7 - 1.0 - Partly cloudy 10 - - - -
26/04:30am 25.9 SE 15 21 1013.6 - 1.0 - Partly cloudy 9 - - - -
26/04:00am 25.8 SE 17 24 1013.4 - 1.0 - Partly cloudy 10 - - - -
26/03:30am 25.7 SE 16 24 1013.4 - 1.0 - Partly cloudy 9 - - - -
26/03:00am 25.4 SE 14 19 1013.5 - 0.8 - Cloudy 9 - - - -
26/02:54am 25.3 SE 14 20 1013.6 - 0.8 - Partly cloudy 10 - - - -
26/02:32am 25.2 ESE 18 25 1013.9 - 0.4 - Partly cloudy 5 - - - -
26/02:30am 25.4 ESE 17 24 1013.9 - 0.4 - Partly cloudy 6 - - - -
26/02:00am 25.9 SE 16 22 1014.0 - 0.4 - Partly cloudy 6 - - - -
26/01:30am 26.3 SE 15 23 1014.2 - 0.4 - Partly cloudy 10 - - - -
26/01:00am 26.1 ESE 14 19 1014.6 - 0.4 - Partly cloudy 9 - - - -
26/12:30am 25.9 SE 15 21 1014.8 - 0.4 - Partly cloudy 10 - - - -
26/12:10am 25.6 SE 15 25 1014.9 - 0.4 - Partly cloudy 10 - - - -
26/12:01am 25.3 SE 15 25 1015.0 - 0.4 - Partly cloudy 6 - - - -
26/12:00am 25.4 SE 16 25 1015.0 - 0.4 - Cloudy 5 - - - -
 
Date/Time
EST
Temp

°C
Wind Pressure Rain
since 9am
mm
Weather Cloud Vis
km
Sea
Height
m
Swell
Dir
 
Speed
knots
Gust
knots
hPa Trend Height
m
Period
s
Dir
25/11:51pm 26.0 ESE 15 25 1014.9 - 0.0 - Partly cloudy 5 - - - -
25/11:30pm 26.4 SE 16 25 1015.0 - 0.0 - Partly cloudy 10 - - - -
25/11:20pm 26.4 SE 15 25 1015.1 - 0.0 - Partly cloudy 10 - - - -
25/11:00pm 26.4 SE 17 22 1015.2 - 0.0 - Partly cloudy 10 - - - -
25/10:30pm 26.7 ESE 15 22 1015.0 - 0.0 - Partly cloudy 10 - - - -
25/10:00pm 26.8 ESE 16 23 1015.1 - 0.0 - Partly cloudy 10 - - - -
25/09:39pm 26.8 ESE 17 27 1015.0 - 0.0 - Partly cloudy 10 - - - -
25/09:30pm 26.8 ESE 17 25 1014.9 - 0.0 - Partly cloudy 10 - - - -
25/09:00pm 26.8 ESE 18 26 1014.7 - 0.0 - Cloudy 10 - - - -
25/08:30pm 26.8 ESE 18 24 1014.4 - 0.0 - Partly cloudy 10 - - - -
25/08:00pm 26.9 ESE 18 25 1014.2 - 0.0 - Partly cloudy 10 - - - -
25/07:30pm 26.9 ESE 19 27 1013.8 - 0.0 - Partly cloudy 10 - - - -
25/07:00pm 26.8 SE 17 24 1013.4 - 0.0 - Partly cloudy 10 - - - -
25/06:30pm 26.9 ESE 18 27 1013.1 - 0.0 - Partly cloudy 10 - - - -
25/06:04pm 27.0 SE 17 27 1012.9 - 0.0 - Partly cloudy 10 - - - -
25/06:00pm 27.1 SE 19 27 1012.9 - 0.0 - Partly cloudy 10 - - - -
25/05:30pm 27.4 SE 18 26 1012.7 - 0.0 - Partly cloudy 10 - - - -
25/05:00pm 27.7 ESE 19 25 1012.6 - 0.0 - Partly cloudy 10 - - - -
25/04:30pm 28.0 ESE 18 25 1012.4 - 0.0 - Partly cloudy 10 - - - -
25/04:00pm 28.2 ESE 17 25 1012.1 - 0.0 - Partly cloudy 10 - - - -
25/03:30pm 28.7 ESE 19 30 1012.0 - 0.0 - Partly cloudy 10 - - - -
25/03:10pm 28.8 ESE 20 31 1012.1 - 0.0 - Partly cloudy 10 - - - -
25/03:00pm 28.6 ESE 20 28 1012.1 - 0.0 - Mostly clear 6 - - - -
25/02:34pm 29.1 ESE 20 30 1012.2 - 0.0 - Partly cloudy 10 - - - -
25/02:30pm 28.9 ESE 21 30 1012.3 - 0.0 - Partly cloudy 10 - - - -
25/02:05pm 29.6 ESE 22 32 1012.7 - 0.0 - Partly cloudy 10 - - - -
25/02:00pm 29.0 ESE 23 32 1012.7 - 0.0 - Partly cloudy 10 - - - -
25/01:57pm 29.0 ESE 22 32 1012.8 - 0.0 - Partly cloudy 10 - - - -
25/01:30pm 28.9 ESE 19 27 1013.2 - 0.0 - Partly cloudy 10 - - - -
25/01:27pm 29.5 ESE 20 30 1013.2 - 0.0 - Partly cloudy 10 - - - -
25/01:00pm 29.0 ESE 21 29 1013.6 - 0.0 - Partly cloudy 10 - - - -
25/12:34pm 28.7 ESE 19 31 1013.8 - 0.0 - Partly cloudy 10 - - - -
25/12:30pm 28.7 SE 19 27 1013.9 - 0.0 - Partly cloudy 10 - - - -
25/12:08pm 28.9 ESE 18 28 1014.1 - 0.0 - Partly cloudy 10 - - - -
25/12:00pm 29.0 ESE 18 25 1014.2 - 0.0 - Cloudy 10 - - - -
25/11:30am 29.1 ESE 21 29 1014.4 - 0.0 - Partly cloudy 10 - - - -
25/11:00am 28.7 ESE 19 29 1014.7 - 0.0 - Partly cloudy 10 - - - -
25/10:30am 29.0 ESE 19 29 1014.7 - 0.0 - Partly cloudy 10 - - - -
25/10:23am 28.4 ESE 19 29 1014.6 - 0.0 - Partly cloudy 10 - - - -
25/10:00am 27.9 ESE 18 26 1015.1 - 0.0 - Partly cloudy 10 - - - -
25/09:30am 27.8 ESE 15 22 1015.2 - 0.0 - Partly cloudy 10 - - - -
25/09:00am 26.9 ESE 14 20 1015.1 - 1.4 - Cloudy 10 - - - -
25/08:43am 27.0 ESE 15 25 1014.9 - 1.4 - Partly cloudy 10 - - - -
25/08:30am 26.7 ESE 15 21 1014.9 - 1.4 - Partly cloudy 10 - - - -
25/08:03am 26.3 ESE 13 17 1014.6 - 1.4 - Partly cloudy 10 - - - -
25/08:00am 26.1 ESE 13 17 1014.6 - 1.4 - Partly cloudy 10 - - - -
25/07:41am 25.7 SE 16 26 1014.6 - 0.8 - Partly cloudy 4 - - - -
25/07:38am 26.1 SE 15 21 1014.6 - 0.6 - Partly cloudy 5 - - - -
25/07:30am 26.5 ESE 14 22 1014.4 - 0.6 - Partly cloudy 10 - - - -
25/07:00am 26.3 SE 13 21 1013.9 - 0.6 - Partly cloudy 10 - - - -
25/06:33am 25.8 SE 15 25 1013.7 - 0.6 - Cloudy 6 - - - -
25/06:30am 26.1 SE 13 18 1013.7 - 0.6 - Cloudy 8 - - - -
25/06:00am 25.8 SE 11 16 1013.4 - 0.6 - Mostly cloudy 10 - - - -
25/05:44am 25.8 SE 13 19 1013.2 - 0.6 - Partly cloudy 10 - - - -
25/05:35am 25.7 SE 14 19 1013.1 - 0.6 - Partly cloudy 10 - - - -
25/05:30am 25.5 SE 13 18 1013.2 - 0.6 - Partly cloudy 10 - - - -
25/05:17am 25.4 SE 10 15 1013.3 - 0.4 - Partly cloudy 5 - - - -
25/05:07am 25.5 SSE 10 16 1013.1 - 0.2 - Partly cloudy 10 - - - -
25/05:00am 25.6 SSE 10 16 1013.1 - 0.2 - Partly cloudy 10 - - - -
25/04:54am 25.6 SSE 10 14 1013.0 - 0.2 - Partly cloudy 10 - - - -
25/04:43am 25.5 SSE 11 16 1013.0 - 0.2 - Partly cloudy 10 - - - -
25/04:38am 25.4 SSE 11 17 1013.1 - 0.2 - Partly cloudy 10 - - - -
25/04:30am 25.4 SE 11 17 1013.1 - 0.2 - Partly cloudy 10 - - - -
25/04:13am 25.1 SE 10 15 1013.2 - 0.2 - Partly cloudy 10 - - - -
25/04:00am 25.0 SE 12 17 1013.3 - 0.2 - Partly cloudy 5 - - - -
25/03:47am 25.4 SE 10 16 1013.3 - 0.0 - Partly cloudy 5 - - - -
25/03:30am 25.5 SE 12 17 1013.2 - 0.0 - Partly cloudy 10 - - - -
25/03:00am 25.8 SSE 13 18 1013.2 - 0.0 - Cloudy 10 - - - -
25/02:32am 25.4 SE 13 19 1013.4 - 0.0 - Partly cloudy 8 - - - -
25/02:30am 25.3 SE 14 21 1013.5 - 0.0 - Partly cloudy 7 - - - -
25/02:27am 25.3 SE 14 21 1013.5 - 0.0 - Partly cloudy 6 - - - -
25/02:22am 25.4 SE 15 21 1013.5 - 0.0 - Partly cloudy 5 - - - -
25/02:00am 26.0 SE 16 23 1013.7 - 0.0 - Partly cloudy 10 - - - -
25/01:30am 26.2 SE 16 22 1013.7 - 0.0 - Cloudy 10 - - - -
25/01:00am 26.0 SE 14 20 1014.0 - 0.0 - Partly cloudy 10 - - - -
25/12:30am 25.9 SE 14 19 1014.2 - 0.0 - Partly cloudy 10 - - - -
25/12:00am 25.8 SE 15 21 1014.5 - 0.0 - Mostly cloudy 10 - - - -
 
Date/Time
EST
Temp

°C
Wind Pressure Rain
since 9am
mm
Weather Cloud Vis
km
Sea
Height
m
Swell
Dir
 
Speed
knots
Gust
knots
hPa Trend Height
m
Period
s
Dir
24/11:30pm 26.2 SE 13 22 1014.7 - 0.0 - Partly cloudy 10 - - - -
24/11:00pm 26.2 SE 13 18 1014.6 - 0.0 - Partly cloudy 10 - - - -
24/10:30pm 26.3 SE 14 24 1014.7 - 0.0 - Partly cloudy 10 - - - -
24/10:00pm 26.2 SSE 13 19 1014.6 - 0.0 - Partly cloudy 10 - - - -
24/09:30pm 26.3 SSE 12 19 1014.7 - 0.0 - Cloudy 10 - - - -
24/09:00pm 26.4 SE 12 17 1014.7 - 0.0 - Cloudy 10 - - - -
24/08:30pm 26.6 SE 12 17 1014.7 - 0.0 - Partly cloudy 10 - - - -
24/08:00pm 26.4 SE 12 19 1014.3 - 0.0 - Partly cloudy 10 - - - -
24/07:30pm 26.6 SE 15 23 1014.0 - 0.0 - Partly cloudy 10 - - - -
24/07:00pm 26.7 SE 11 19 1013.7 - 0.0 - Partly cloudy 10 - - - -
24/06:30pm 26.8 SE 13 18 1013.6 - 0.0 - Partly cloudy 10 - - - -

Other Formats:

Comma delimited format used in spreadsheet applications
http://www.bom.gov.au/fwo/IDQ60701/IDQ60701.94174.axf

JavaScript Object Notation format (JSON) in row-major order
http://www.bom.gov.au/fwo/IDQ60701/IDQ60701.94174.json